sensor_id;sensor_type;location;lat;lon;timestamp;pressure;altitude;pressure_sealevel;temperature;humidity
5952;BME280;3001;42.622;23.194;2023-07-29T00:01:00;91328.66;;;20.48;68.03
5952;BME280;3001;42.622;23.194;2023-07-29T00:03:27;91318.91;;;20.23;69.20
5952;BME280;3001;42.622;23.194;2023-07-29T00:05:55;91321.16;;;20.21;68.51
5952;BME280;3001;42.622;23.194;2023-07-29T00:08:22;91328.75;;;20.26;68.52
5952;BME280;3001;42.622;23.194;2023-07-29T00:10:47;91327.69;;;20.30;68.54
5952;BME280;3001;42.622;23.194;2023-07-29T00:13:15;91325.06;;;20.30;68.03
5952;BME280;3001;42.622;23.194;2023-07-29T00:15:42;91321.81;;;20.14;68.83
5952;BME280;3001;42.622;23.194;2023-07-29T00:18:09;91316.19;;;20.16;68.90
5952;BME280;3001;42.622;23.194;2023-07-29T00:20:35;91316.59;;;20.18;68.73
5952;BME280;3001;42.622;23.194;2023-07-29T00:23:02;91315.09;;;20.20;68.56
5952;BME280;3001;42.622;23.194;2023-07-29T00:25:29;91317.41;;;20.22;68.68
5952;BME280;3001;42.622;23.194;2023-07-29T00:27:56;91318.06;;;20.15;69.05
5952;BME280;3001;42.622;23.194;2023-07-29T00:30:24;91307.56;;;20.19;69.27
5952;BME280;3001;42.622;23.194;2023-07-29T00:32:52;91302.69;;;20.21;69.22
5952;BME280;3001;42.622;23.194;2023-07-29T00:35:18;91309.13;;;20.23;69.19
5952;BME280;3001;42.622;23.194;2023-07-29T00:37:45;91308.31;;;20.19;68.80
5952;BME280;3001;42.622;23.194;2023-07-29T00:40:15;91300.78;;;20.18;68.96
5952;BME280;3001;42.622;23.194;2023-07-29T00:42:42;91307.78;;;20.07;69.69
5952;BME280;3001;42.622;23.194;2023-07-29T00:45:09;91307.38;;;20.05;69.77
5952;BME280;3001;42.622;23.194;2023-07-29T00:47:38;91304.00;;;20.04;69.62
5952;BME280;3001;42.622;23.194;2023-07-29T00:50:06;91303.44;;;19.95;70.31
5952;BME280;3001;42.622;23.194;2023-07-29T00:52:33;91302.63;;;19.91;70.73
5952;BME280;3001;42.622;23.194;2023-07-29T00:55:00;91298.13;;;19.92;71.13
5952;BME280;3001;42.622;23.194;2023-07-29T00:57:27;91293.47;;;19.82;70.75
5952;BME280;3001;42.622;23.194;2023-07-29T00:59:55;91295.28;;;19.78;71.02
5952;BME280;3001;42.622;23.194;2023-07-29T01:02:22;91289.25;;;19.77;70.71
5952;BME280;3001;42.622;23.194;2023-07-29T01:04:53;91292.66;;;19.78;70.71
5952;BME280;3001;42.622;23.194;2023-07-29T01:07:23;91289.75;;;19.86;70.76
5952;BME280;3001;42.622;23.194;2023-07-29T01:09:59;91291.06;;;19.99;70.17
5952;BME280;3001;42.622;23.194;2023-07-29T01:12:34;91293.88;;;20.10;69.45
5952;BME280;3001;42.622;23.194;2023-07-29T01:15:09;91296.81;;;20.05;69.98
5952;BME280;3001;42.622;23.194;2023-07-29T01:17:41;91291.50;;;20.01;70.02
5952;BME280;3001;42.622;23.194;2023-07-29T01:20:14;91293.13;;;20.09;70.16
5952;BME280;3001;42.622;23.194;2023-07-29T01:22:41;91291.78;;;19.96;70.20
5952;BME280;3001;42.622;23.194;2023-07-29T01:25:10;91289.78;;;19.90;70.63
5952;BME280;3001;42.622;23.194;2023-07-29T01:27:36;91288.91;;;19.79;70.88
5952;BME280;3001;42.622;23.194;2023-07-29T01:30:04;91271.88;;;19.73;70.72
5952;BME280;3001;42.622;23.194;2023-07-29T01:32:36;91289.75;;;19.86;71.20
5952;BME280;3001;42.622;23.194;2023-07-29T01:35:10;91292.34;;;19.83;70.85
5952;BME280;3001;42.622;23.194;2023-07-29T01:37:40;91292.09;;;19.91;70.49
5952;BME280;3001;42.622;23.194;2023-07-29T01:40:10;91291.63;;;19.86;71.09
5952;BME280;3001;42.622;23.194;2023-07-29T01:42:37;91290.81;;;19.82;71.02
5952;BME280;3001;42.622;23.194;2023-07-29T01:45:05;91289.78;;;19.90;71.13
5952;BME280;3001;42.622;23.194;2023-07-29T01:47:32;91294.38;;;19.93;70.91
5952;BME280;3001;42.622;23.194;2023-07-29T01:49:58;91284.13;;;19.88;71.37
5952;BME280;3001;42.622;23.194;2023-07-29T01:52:25;91290.91;;;19.89;71.32
5952;BME280;3001;42.622;23.194;2023-07-29T01:54:52;91287.88;;;19.87;71.58
5952;BME280;3001;42.622;23.194;2023-07-29T01:57:20;91285.91;;;19.80;71.16
5952;BME280;3001;42.622;23.194;2023-07-29T01:59:46;91291.84;;;19.74;71.93
5952;BME280;3001;42.622;23.194;2023-07-29T02:02:13;91292.72;;;19.81;70.89
5952;BME280;3001;42.622;23.194;2023-07-29T02:04:40;91292.00;;;19.84;71.03
5952;BME280;3001;42.622;23.194;2023-07-29T02:07:06;91283.63;;;19.79;71.21
5952;BME280;3001;42.622;23.194;2023-07-29T02:09:33;91289.31;;;19.81;71.49
5952;BME280;3001;42.622;23.194;2023-07-29T02:12:00;91288.13;;;19.78;71.70
5952;BME280;3001;42.622;23.194;2023-07-29T02:14:28;91288.50;;;19.77;71.61
5952;BME280;3001;42.622;23.194;2023-07-29T02:16:54;91286.59;;;19.77;71.80
5952;BME280;3001;42.622;23.194;2023-07-29T02:19:21;91284.69;;;19.74;71.85
5952;BME280;3001;42.622;23.194;2023-07-29T02:21:48;91282.78;;;19.71;71.73
5952;BME280;3001;42.622;23.194;2023-07-29T02:24:14;91296.34;;;19.73;72.14
5952;BME280;3001;42.622;23.194;2023-07-29T02:26:41;91298.38;;;19.83;71.42
5952;BME280;3001;42.622;23.194;2023-07-29T02:29:08;91292.03;;;19.62;71.93
5952;BME280;3001;42.622;23.194;2023-07-29T02:31:36;91287.84;;;19.83;71.76
5952;BME280;3001;42.622;23.194;2023-07-29T02:34:03;91283.94;;;19.74;72.16
5952;BME280;3001;42.622;23.194;2023-07-29T02:36:30;91282.91;;;19.82;71.75
5952;BME280;3001;42.622;23.194;2023-07-29T02:38:57;91286.72;;;19.84;72.07
5952;BME280;3001;42.622;23.194;2023-07-29T02:41:23;91281.22;;;19.96;72.52
5952;BME280;3001;42.622;23.194;2023-07-29T02:43:51;91280.50;;;19.99;72.14
5952;BME280;3001;42.622;23.194;2023-07-29T02:46:17;91288.50;;;20.03;71.32
5952;BME280;3001;42.622;23.194;2023-07-29T02:48:45;91281.91;;;20.16;71.33
5952;BME280;3001;42.622;23.194;2023-07-29T02:51:12;91280.94;;;20.01;72.01
5952;BME280;3001;42.622;23.194;2023-07-29T02:53:39;91287.69;;;19.99;71.93
5952;BME280;3001;42.622;23.194;2023-07-29T02:56:06;91290.66;;;19.97;72.24
5952;BME280;3001;42.622;23.194;2023-07-29T02:58:34;91293.56;;;19.89;72.67
5952;BME280;3001;42.622;23.194;2023-07-29T03:01:01;91290.22;;;19.92;72.25
5952;BME280;3001;42.622;23.194;2023-07-29T03:03:28;91294.72;;;19.91;71.87
5952;BME280;3001;42.622;23.194;2023-07-29T03:05:59;91306.03;;;19.92;71.80
5952;BME280;3001;42.622;23.194;2023-07-29T03:08:26;91302.16;;;19.82;71.50
5952;BME280;3001;42.622;23.194;2023-07-29T03:10:53;91308.81;;;19.76;71.79
5952;BME280;3001;42.622;23.194;2023-07-29T03:13:20;91297.06;;;19.70;72.37
5952;BME280;3001;42.622;23.194;2023-07-29T03:15:47;91300.66;;;19.59;72.76
5952;BME280;3001;42.622;23.194;2023-07-29T03:18:14;91304.50;;;19.65;72.63
5952;BME280;3001;42.622;23.194;2023-07-29T03:20:41;91312.81;;;19.67;72.72
5952;BME280;3001;42.622;23.194;2023-07-29T03:23:09;91304.47;;;19.61;73.25
5952;BME280;3001;42.622;23.194;2023-07-29T03:25:36;91300.09;;;19.72;72.30
5952;BME280;3001;42.622;23.194;2023-07-29T03:28:03;91294.03;;;19.46;73.37
5952;BME280;3001;42.622;23.194;2023-07-29T03:30:29;91299.22;;;19.65;72.11
5952;BME280;3001;42.622;23.194;2023-07-29T03:32:56;91295.31;;;19.55;72.17
5952;BME280;3001;42.622;23.194;2023-07-29T03:35:23;91299.78;;;19.51;71.96
5952;BME280;3001;42.622;23.194;2023-07-29T03:37:49;91292.09;;;19.65;72.28
5952;BME280;3001;42.622;23.194;2023-07-29T03:40:18;91293.31;;;19.71;72.42
5952;BME280;3001;42.622;23.194;2023-07-29T03:42:44;91282.84;;;19.78;72.77
5952;BME280;3001;42.622;23.194;2023-07-29T03:45:11;91287.06;;;19.83;72.17
5952;BME280;3001;42.622;23.194;2023-07-29T03:47:38;91285.09;;;19.76;72.70
5952;BME280;3001;42.622;23.194;2023-07-29T03:50:06;91288.50;;;19.77;72.51
5952;BME280;3001;42.622;23.194;2023-07-29T03:52:32;91285.94;;;19.84;72.62
5952;BME280;3001;42.622;23.194;2023-07-29T03:54:59;91287.59;;;19.92;72.92
5952;BME280;3001;42.622;23.194;2023-07-29T03:57:27;91293.69;;;19.99;72.69
5952;BME280;3001;42.622;23.194;2023-07-29T03:59:55;91275.72;;;19.79;73.49
5952;BME280;3001;42.622;23.194;2023-07-29T04:02:21;91287.75;;;20.02;73.01
5952;BME280;3001;42.622;23.194;2023-07-29T04:04:48;91294.38;;;19.93;73.59
5952;BME280;3001;42.622;23.194;2023-07-29T04:07:15;91290.50;;;19.87;74.78
5952;BME280;3001;42.622;23.194;2023-07-29T04:09:41;91295.75;;;19.83;74.95
5952;BME280;3001;42.622;23.194;2023-07-29T04:12:09;91299.34;;;19.72;75.95
5952;BME280;3001;42.622;23.194;2023-07-29T04:14:37;91291.69;;;19.63;77.11
5952;BME280;3001;42.622;23.194;2023-07-29T04:17:04;91292.38;;;19.60;77.50
5952;BME280;3001;42.622;23.194;2023-07-29T04:19:31;91294.69;;;19.62;77.55
5952;BME280;3001;42.622;23.194;2023-07-29T04:21:58;91295.31;;;19.55;78.03
5952;BME280;3001;42.622;23.194;2023-07-29T04:24:24;91296.84;;;19.56;78.36
5952;BME280;3001;42.622;23.194;2023-07-29T04:26:51;91301.16;;;19.68;78.30
5952;BME280;3001;42.622;23.194;2023-07-29T04:29:18;91302.34;;;19.70;77.91
5952;BME280;3001;42.622;23.194;2023-07-29T04:31:46;91298.25;;;19.73;78.07
5952;BME280;3001;42.622;23.194;2023-07-29T04:34:12;91294.91;;;19.79;78.36
5952;BME280;3001;42.622;23.194;2023-07-29T04:36:39;91297.69;;;19.86;78.51
5952;BME280;3001;42.622;23.194;2023-07-29T04:39:05;91306.78;;;19.92;78.15
5952;BME280;3001;42.622;23.194;2023-07-29T04:41:33;91311.22;;;20.11;78.04
5952;BME280;3001;42.622;23.194;2023-07-29T04:43:59;91306.03;;;20.18;78.15
5952;BME280;3001;42.622;23.194;2023-07-29T04:46:26;91310.94;;;20.19;78.28
5952;BME280;3001;42.622;23.194;2023-07-29T04:48:54;91307.19;;;20.20;78.77
5952;BME280;3001;42.622;23.194;2023-07-29T04:51:21;91306.84;;;20.22;79.11
5952;BME280;3001;42.622;23.194;2023-07-29T04:53:48;91310.75;;;20.31;79.36
5952;BME280;3001;42.622;23.194;2023-07-29T04:56:14;91316.72;;;20.28;79.56
5952;BME280;3001;42.622;23.194;2023-07-29T04:58:41;91323.59;;;20.33;79.58
5952;BME280;3001;42.622;23.194;2023-07-29T05:01:08;91318.34;;;20.36;80.01
5952;BME280;3001;42.622;23.194;2023-07-29T05:03:35;91330.72;;;20.32;79.96
5952;BME280;3001;42.622;23.194;2023-07-29T05:06:03;91323.16;;;20.31;80.61
5952;BME280;3001;42.622;23.194;2023-07-29T05:08:30;91324.25;;;20.26;80.98
5952;BME280;3001;42.622;23.194;2023-07-29T05:10:57;91323.59;;;20.33;79.90
5952;BME280;3001;42.622;23.194;2023-07-29T05:13:23;91330.78;;;20.36;81.04
5952;BME280;3001;42.622;23.194;2023-07-29T05:15:50;91327.75;;;20.34;81.05
5952;BME280;3001;42.622;23.194;2023-07-29T05:18:17;91348.16;;;20.40;82.46
5952;BME280;3001;42.622;23.194;2023-07-29T05:20:44;91338.50;;;20.51;81.22
5952;BME280;3001;42.622;23.194;2023-07-29T05:23:12;91335.47;;;20.49;79.94
5952;BME280;3001;42.622;23.194;2023-07-29T05:25:39;91333.22;;;20.51;80.19
5952;BME280;3001;42.622;23.194;2023-07-29T05:28:05;91341.66;;;20.64;78.27
5952;BME280;3001;42.622;23.194;2023-07-29T05:30:32;91338.38;;;20.70;78.08
5952;BME280;3001;42.622;23.194;2023-07-29T05:33:02;91344.88;;;20.80;77.70
5952;BME280;3001;42.622;23.194;2023-07-29T05:35:29;91345.34;;;20.85;78.49
5952;BME280;3001;42.622;23.194;2023-07-29T05:37:56;91349.53;;;20.90;78.23
5952;BME280;3001;42.622;23.194;2023-07-29T05:40:24;91355.34;;;21.02;76.59
5952;BME280;3001;42.622;23.194;2023-07-29T05:42:51;91351.28;;;21.08;76.28
5952;BME280;3001;42.622;23.194;2023-07-29T05:45:17;91347.84;;;21.04;76.29
5952;BME280;3001;42.622;23.194;2023-07-29T05:47:44;91350.06;;;21.02;76.16
5952;BME280;3001;42.622;23.194;2023-07-29T05:50:11;91351.56;;;21.00;76.53
5952;BME280;3001;42.622;23.194;2023-07-29T05:52:37;91348.63;;;21.11;76.99
5952;BME280;3001;42.622;23.194;2023-07-29T05:55:05;91360.38;;;21.14;77.26
5952;BME280;3001;42.622;23.194;2023-07-29T05:57:33;91356.69;;;21.22;77.52
5952;BME280;3001;42.622;23.194;2023-07-29T05:59:59;91355.25;;;21.28;78.38
5952;BME280;3001;42.622;23.194;2023-07-29T06:02:26;91349.97;;;21.31;78.12
5952;BME280;3001;42.622;23.194;2023-07-29T06:04:53;91355.31;;;21.35;78.10
5952;BME280;3001;42.622;23.194;2023-07-29T06:07:20;91359.63;;;21.53;77.15
5952;BME280;3001;42.622;23.194;2023-07-29T06:09:47;91356.13;;;21.42;78.62
5952;BME280;3001;42.622;23.194;2023-07-29T06:12:13;91349.97;;;21.68;78.48
5952;BME280;3001;42.622;23.194;2023-07-29T06:14:41;91358.38;;;21.80;75.36
5952;BME280;3001;42.622;23.194;2023-07-29T06:17:08;91360.31;;;21.87;76.28
5952;BME280;3001;42.622;23.194;2023-07-29T06:19:36;91348.31;;;21.96;76.92
5952;BME280;3001;42.622;23.194;2023-07-29T06:22:04;91344.84;;;21.92;76.07
5952;BME280;3001;42.622;23.194;2023-07-29T06:24:31;91348.69;;;21.98;76.75
5952;BME280;3001;42.622;23.194;2023-07-29T06:26:58;91338.97;;;22.13;76.63
5952;BME280;3001;42.622;23.194;2023-07-29T06:29:25;91341.28;;;22.25;74.21
5952;BME280;3001;42.622;23.194;2023-07-29T06:31:53;91339.13;;;22.37;75.24
5952;BME280;3001;42.622;23.194;2023-07-29T06:34:20;91337.56;;;22.36;74.38
5952;BME280;3001;42.622;23.194;2023-07-29T06:36:47;91332.78;;;22.49;74.86
5952;BME280;3001;42.622;23.194;2023-07-29T06:39:14;91327.53;;;22.59;74.20
5952;BME280;3001;42.622;23.194;2023-07-29T06:41:40;91325.69;;;22.74;73.39
5952;BME280;3001;42.622;23.194;2023-07-29T06:44:07;91329.91;;;22.89;71.26
5952;BME280;3001;42.622;23.194;2023-07-29T06:46:34;91284.44;;;22.69;69.37
5952;BME280;3001;42.622;23.194;2023-07-29T06:49:02;91331.91;;;23.19;70.72
5952;BME280;3001;42.622;23.194;2023-07-29T06:51:28;91334.22;;;23.38;70.68
5952;BME280;3001;42.622;23.194;2023-07-29T06:53:57;91335.00;;;23.49;71.58
5952;BME280;3001;42.622;23.194;2023-07-29T06:56:24;91337.28;;;23.51;71.38
5952;BME280;3001;42.622;23.194;2023-07-29T06:58:51;91341.06;;;23.71;72.15
5952;BME280;3001;42.622;23.194;2023-07-29T07:01:17;91345.25;;;23.75;71.76
5952;BME280;3001;42.622;23.194;2023-07-29T07:03:44;91342.59;;;23.79;71.46
5952;BME280;3001;42.622;23.194;2023-07-29T07:06:13;91346.41;;;24.02;71.08
5952;BME280;3001;42.622;23.194;2023-07-29T07:08:39;91350.22;;;24.15;67.07
5952;BME280;3001;42.622;23.194;2023-07-29T07:11:07;91345.25;;;24.24;66.57
5952;BME280;3001;42.622;23.194;2023-07-29T07:13:33;91340.28;;;24.47;66.94
5952;BME280;3001;42.622;23.194;2023-07-29T07:16:00;91344.41;;;24.69;65.57
5952;BME280;3001;42.622;23.194;2023-07-29T07:18:27;91340.97;;;24.83;67.22
5952;BME280;3001;42.622;23.194;2023-07-29T07:20:53;91340.16;;;24.96;66.00
5952;BME280;3001;42.622;23.194;2023-07-29T07:23:21;91343.88;;;25.09;64.43
5952;BME280;3001;42.622;23.194;2023-07-29T07:25:48;91343.47;;;25.17;63.62
5952;BME280;3001;42.622;23.194;2023-07-29T07:28:15;91344.59;;;25.27;63.45
5952;BME280;3001;42.622;23.194;2023-07-29T07:30:42;91346.91;;;25.21;63.55
5952;BME280;3001;42.622;23.194;2023-07-29T07:33:08;91350.22;;;25.43;63.10
5952;BME280;3001;42.622;23.194;2023-07-29T07:35:35;91339.44;;;25.60;63.11
5952;BME280;3001;42.622;23.194;2023-07-29T07:38:02;91337.56;;;25.57;62.36
5952;BME280;3001;42.622;23.194;2023-07-29T07:40:31;91346.63;;;25.70;58.52
5952;BME280;3001;42.622;23.194;2023-07-29T07:42:58;91342.75;;;25.78;60.16
5952;BME280;3001;42.622;23.194;2023-07-29T07:45:24;91331.72;;;25.80;59.78
5952;BME280;3001;42.622;23.194;2023-07-29T07:47:51;91348.03;;;25.89;60.13
5952;BME280;3001;42.622;23.194;2023-07-29T07:50:19;91339.16;;;26.02;59.71
5952;BME280;3001;42.622;23.194;2023-07-29T07:52:46;91348.59;;;26.14;59.93
5952;BME280;3001;42.622;23.194;2023-07-29T07:55:12;91345.06;;;26.27;57.13
5952;BME280;3001;42.622;23.194;2023-07-29T07:57:40;91345.72;;;26.38;57.50
5952;BME280;3001;42.622;23.194;2023-07-29T08:00:08;91350.50;;;26.57;56.41
5952;BME280;3001;42.622;23.194;2023-07-29T08:02:36;91350.38;;;26.71;56.53
5952;BME280;3001;42.622;23.194;2023-07-29T08:05:03;91348.09;;;26.69;55.31
5952;BME280;3001;42.622;23.194;2023-07-29T08:07:29;91346.03;;;26.84;53.81
5952;BME280;3001;42.622;23.194;2023-07-29T08:09:56;91347.34;;;27.02;53.93
5952;BME280;3001;42.622;23.194;2023-07-29T08:12:23;91348.94;;;26.96;53.85
5952;BME280;3001;42.622;23.194;2023-07-29T08:14:51;91347.28;;;27.06;53.13
5952;BME280;3001;42.622;23.194;2023-07-29T08:17:17;91353.34;;;27.43;50.52
5952;BME280;3001;42.622;23.194;2023-07-29T08:19:44;91363.84;;;27.57;50.80
5952;BME280;3001;42.622;23.194;2023-07-29T08:22:11;91362.91;;;27.71;50.97
5952;BME280;3001;42.622;23.194;2023-07-29T08:24:37;91366.38;;;27.94;50.02
5952;BME280;3001;42.622;23.194;2023-07-29T08:27:05;91360.94;;;28.01;49.14
5952;BME280;3001;42.622;23.194;2023-07-29T08:29:31;91361.47;;;28.16;48.67
5952;BME280;3001;42.622;23.194;2023-07-29T08:31:59;91360.50;;;28.29;48.06
5952;BME280;3001;42.622;23.194;2023-07-29T08:34:26;91362.63;;;28.41;48.19
5952;BME280;3001;42.622;23.194;2023-07-29T08:36:53;91357.78;;;28.56;48.04
5952;BME280;3001;42.622;23.194;2023-07-29T08:39:19;91366.31;;;28.70;46.18
5952;BME280;3001;42.622;23.194;2023-07-29T08:41:53;91369.19;;;28.79;46.04
5952;BME280;3001;42.622;23.194;2023-07-29T08:44:22;91361.78;;;28.90;43.84
5952;BME280;3001;42.622;23.194;2023-07-29T08:46:49;91360.06;;;28.99;43.12
5952;BME280;3001;42.622;23.194;2023-07-29T08:49:18;91363.91;;;29.18;43.25
5952;BME280;3001;42.622;23.194;2023-07-29T08:51:46;91362.59;;;29.26;43.35
5952;BME280;3001;42.622;23.194;2023-07-29T08:54:13;91360.72;;;29.42;42.42
5952;BME280;3001;42.622;23.194;2023-07-29T08:56:41;91357.38;;;29.58;42.80
5952;BME280;3001;42.622;23.194;2023-07-29T08:59:08;91363.88;;;29.76;41.39
5952;BME280;3001;42.622;23.194;2023-07-29T09:01:36;91365.66;;;29.99;42.66
5952;BME280;3001;42.622;23.194;2023-07-29T09:04:03;91362.22;;;29.98;42.28
5952;BME280;3001;42.622;23.194;2023-07-29T09:06:32;91360.63;;;30.01;40.56
5952;BME280;3001;42.622;23.194;2023-07-29T09:08:59;91362.09;;;30.05;39.59
5952;BME280;3001;42.622;23.194;2023-07-29T09:11:26;91359.34;;;30.09;42.21
5952;BME280;3001;42.622;23.194;2023-07-29T09:13:53;91354.53;;;30.00;41.58
5952;BME280;3001;42.622;23.194;2023-07-29T09:16:21;91343.34;;;30.05;41.00
5952;BME280;3001;42.622;23.194;2023-07-29T09:18:48;91356.69;;;30.25;38.94
5952;BME280;3001;42.622;23.194;2023-07-29T09:21:16;91355.97;;;30.21;41.42
5952;BME280;3001;42.622;23.194;2023-07-29T09:23:44;91350.69;;;30.49;37.95
5952;BME280;3001;42.622;23.194;2023-07-29T09:26:11;91351.38;;;30.69;38.51
5952;BME280;3001;42.622;23.194;2023-07-29T09:28:39;91357.56;;;30.50;36.96
5952;BME280;3001;42.622;23.194;2023-07-29T09:31:06;91355.28;;;30.80;37.60
5952;BME280;3001;42.622;23.194;2023-07-29T09:33:34;91348.53;;;31.04;37.36
5952;BME280;3001;42.622;23.194;2023-07-29T09:36:02;91350.22;;;31.27;38.61
5952;BME280;3001;42.622;23.194;2023-07-29T09:38:29;91347.69;;;31.36;38.09
5952;BME280;3001;42.622;23.194;2023-07-29T09:40:57;91342.47;;;31.57;39.54
5952;BME280;3001;42.622;23.194;2023-07-29T09:43:29;91337.69;;;31.77;37.04
5952;BME280;3001;42.622;23.194;2023-07-29T09:45:59;91340.69;;;31.79;38.29
5952;BME280;3001;42.622;23.194;2023-07-29T09:48:26;91335.63;;;31.81;37.86
5952;BME280;3001;42.622;23.194;2023-07-29T09:50:54;91335.22;;;31.83;34.87
5952;BME280;3001;42.622;23.194;2023-07-29T09:53:21;91335.94;;;31.96;36.13
5952;BME280;3001;42.622;23.194;2023-07-29T09:55:48;91340.69;;;32.04;37.98
5952;BME280;3001;42.622;23.194;2023-07-29T09:58:19;91331.56;;;32.14;35.42
5952;BME280;3001;42.622;23.194;2023-07-29T10:00:52;91337.03;;;32.36;35.19
5952;BME280;3001;42.622;23.194;2023-07-29T10:03:19;91333.91;;;32.37;35.21
5952;BME280;3001;42.622;23.194;2023-07-29T10:05:47;91334.53;;;32.41;32.09
5952;BME280;3001;42.622;23.194;2023-07-29T10:08:14;91326.38;;;32.44;31.62
5952;BME280;3001;42.622;23.194;2023-07-29T10:10:41;91327.84;;;32.58;33.60
5952;BME280;3001;42.622;23.194;2023-07-29T10:13:09;91323.22;;;32.71;33.97
5952;BME280;3001;42.622;23.194;2023-07-29T10:15:38;91328.47;;;32.74;31.40
5952;BME280;3001;42.622;23.194;2023-07-29T10:18:04;91322.56;;;32.79;33.28
5952;BME280;3001;42.622;23.194;2023-07-29T10:20:32;91309.63;;;32.74;30.97
5952;BME280;3001;42.622;23.194;2023-07-29T10:23:00;91312.72;;;32.85;34.15
5952;BME280;3001;42.622;23.194;2023-07-29T10:25:33;91310.78;;;32.86;34.61
5952;BME280;3001;42.622;23.194;2023-07-29T10:28:05;91311.06;;;32.88;32.02
5952;BME280;3001;42.622;23.194;2023-07-29T10:30:32;91317.28;;;32.97;32.81
5952;BME280;3001;42.622;23.194;2023-07-29T10:33:02;91307.03;;;33.05;32.97
5952;BME280;3001;42.622;23.194;2023-07-29T10:35:29;91301.28;;;32.94;32.59
5952;BME280;3001;42.622;23.194;2023-07-29T10:37:56;91296.16;;;33.08;33.29
5952;BME280;3001;42.622;23.194;2023-07-29T10:40:23;91292.69;;;33.20;34.52
5952;BME280;3001;42.622;23.194;2023-07-29T10:43:00;91305.13;;;33.27;28.70
5952;BME280;3001;42.622;23.194;2023-07-29T10:45:36;91297.72;;;33.40;31.66
5952;BME280;3001;42.622;23.194;2023-07-29T10:48:07;91298.91;;;33.39;32.46
5952;BME280;3001;42.622;23.194;2023-07-29T10:50:34;91287.88;;;33.46;32.73
5952;BME280;3001;42.622;23.194;2023-07-29T10:53:00;91296.06;;;33.64;32.90
5952;BME280;3001;42.622;23.194;2023-07-29T10:55:29;91287.16;;;33.76;33.98
5952;BME280;3001;42.622;23.194;2023-07-29T10:58:11;91286.28;;;33.79;33.85
5952;BME280;3001;42.622;23.194;2023-07-29T11:00:39;91274.00;;;33.78;32.15
5952;BME280;3001;42.622;23.194;2023-07-29T11:03:08;91285.88;;;33.89;30.09
5952;BME280;3001;42.622;23.194;2023-07-29T11:05:46;91285.44;;;33.91;28.11
5952;BME280;3001;42.622;23.194;2023-07-29T11:08:21;91285.25;;;33.85;29.66
5952;BME280;3001;42.622;23.194;2023-07-29T11:11:00;91283.56;;;33.79;28.14
5952;BME280;3001;42.622;23.194;2023-07-29T11:13:28;91291.78;;;33.75;28.04
5952;BME280;3001;42.622;23.194;2023-07-29T11:15:55;91277.88;;;33.77;28.87
5952;BME280;3001;42.622;23.194;2023-07-29T11:18:26;91288.09;;;33.82;27.83
5952;BME280;3001;42.622;23.194;2023-07-29T11:20:54;91271.69;;;33.46;29.36
5952;BME280;3001;42.622;23.194;2023-07-29T11:23:27;91280.91;;;33.57;31.38
5952;BME280;3001;42.622;23.194;2023-07-29T11:25:54;91286.72;;;33.77;28.02
5952;BME280;3001;42.622;23.194;2023-07-29T11:28:21;91278.50;;;33.81;30.55
5952;BME280;3001;42.622;23.194;2023-07-29T11:30:49;91272.78;;;33.79;30.82
5952;BME280;3001;42.622;23.194;2023-07-29T11:33:17;91276.63;;;33.69;30.17
5952;BME280;3001;42.622;23.194;2023-07-29T11:35:46;91278.56;;;33.99;30.40
5952;BME280;3001;42.622;23.194;2023-07-29T11:38:15;91276.81;;;34.14;30.78
5952;BME280;3001;42.622;23.194;2023-07-29T11:40:42;91281.75;;;34.15;30.80
5952;BME280;3001;42.622;23.194;2023-07-29T11:43:08;91280.25;;;34.14;30.02
5952;BME280;3001;42.622;23.194;2023-07-29T11:45:35;91271.56;;;34.10;27.71
5952;BME280;3001;42.622;23.194;2023-07-29T11:48:02;91278.28;;;34.06;28.63
5952;BME280;3001;42.622;23.194;2023-07-29T11:50:29;91273.06;;;34.11;29.08
5952;BME280;3001;42.622;23.194;2023-07-29T11:52:57;91266.72;;;34.36;29.95
5952;BME280;3001;42.622;23.194;2023-07-29T11:55:24;91275.69;;;34.33;30.02
5952;BME280;3001;42.622;23.194;2023-07-29T11:57:51;91270.72;;;34.31;26.70
5952;BME280;3001;42.622;23.194;2023-07-29T12:00:18;91264.28;;;34.29;29.33
5952;BME280;3001;42.622;23.194;2023-07-29T12:02:47;91254.28;;;34.47;29.04
5952;BME280;3001;42.622;23.194;2023-07-29T12:05:15;91257.56;;;34.42;28.61
5952;BME280;3001;42.622;23.194;2023-07-29T12:07:43;91245.44;;;34.55;29.32
5952;BME280;3001;42.622;23.194;2023-07-29T12:10:12;91260.44;;;34.65;30.38
5952;BME280;3001;42.622;23.194;2023-07-29T12:12:44;91243.06;;;34.66;27.67
5952;BME280;3001;42.622;23.194;2023-07-29T12:15:11;91247.13;;;34.71;27.65
5952;BME280;3001;42.622;23.194;2023-07-29T12:17:39;91249.38;;;34.72;27.16
5952;BME280;3001;42.622;23.194;2023-07-29T12:20:08;91254.31;;;34.74;27.69
5952;BME280;3001;42.622;23.194;2023-07-29T12:22:35;91254.91;;;34.69;26.24
5952;BME280;3001;42.622;23.194;2023-07-29T12:25:02;91249.94;;;34.58;25.83
5952;BME280;3001;42.622;23.194;2023-07-29T12:27:31;91257.91;;;34.62;26.07
5952;BME280;3001;42.622;23.194;2023-07-29T12:29:57;91249.47;;;34.51;27.79
5952;BME280;3001;42.622;23.194;2023-07-29T12:32:25;91237.91;;;34.50;28.99
5952;BME280;3001;42.622;23.194;2023-07-29T12:34:53;91235.22;;;34.41;28.10
5952;BME280;3001;42.622;23.194;2023-07-29T12:37:20;91233.59;;;34.53;29.09
5952;BME280;3001;42.622;23.194;2023-07-29T12:39:57;91245.91;;;34.72;28.32
5952;BME280;3001;42.622;23.194;2023-07-29T12:42:23;91239.78;;;34.80;29.06
5952;BME280;3001;42.622;23.194;2023-07-29T12:44:51;91241.88;;;34.94;28.71
5952;BME280;3001;42.622;23.194;2023-07-29T12:47:18;91252.34;;;35.10;24.26
5952;BME280;3001;42.622;23.194;2023-07-29T12:49:45;91250.53;;;35.07;25.90
5952;BME280;3001;42.622;23.194;2023-07-29T12:52:11;91259.41;;;35.26;25.92
5952;BME280;3001;42.622;23.194;2023-07-29T12:54:38;91246.94;;;35.10;25.79
5952;BME280;3001;42.622;23.194;2023-07-29T12:57:06;91255.94;;;35.25;24.48
5952;BME280;3001;42.622;23.194;2023-07-29T12:59:32;91254.16;;;35.13;24.44
5952;BME280;3001;42.622;23.194;2023-07-29T13:02:00;91252.50;;;35.16;26.32
5952;BME280;3001;42.622;23.194;2023-07-29T13:04:27;91249.19;;;35.12;27.46
5952;BME280;3001;42.622;23.194;2023-07-29T13:06:54;91238.28;;;35.15;27.21
5952;BME280;3001;42.622;23.194;2023-07-29T13:09:21;91239.00;;;35.07;27.26
5952;BME280;3001;42.622;23.194;2023-07-29T13:11:48;91237.66;;;35.02;27.74